sensor_id;sensor_type;location;lat;lon;timestamp;P1;durP1;ratioP1;P2;durP2;ratioP2
41815;SDS011;27814;53.452;-6.180;2022-11-15T00:01:26;15.13;;;2.13;;
41815;SDS011;27814;53.452;-6.180;2022-11-15T00:03:55;11.95;;;1.80;;
41815;SDS011;27814;53.452;-6.180;2022-11-15T00:06:23;13.02;;;2.10;;
41815;SDS011;27814;53.452;-6.180;2022-11-15T00:08:52;13.20;;;1.83;;
41815;SDS011;27814;53.452;-6.180;2022-11-15T00:11:20;9.63;;;2.15;;
41815;SDS011;27814;53.452;-6.180;2022-11-15T00:13:49;13.70;;;2.00;;
41815;SDS011;27814;53.452;-6.180;2022-11-15T00:16:17;11.45;;;1.90;;
41815;SDS011;27814;53.452;-6.180;2022-11-15T00:18:47;12.13;;;1.67;;
41815;SDS011;27814;53.452;-6.180;2022-11-15T00:21:17;11.18;;;1.73;;
41815;SDS011;27814;53.452;-6.180;2022-11-15T00:23:45;11.68;;;1.63;;
41815;SDS011;27814;53.452;-6.180;2022-11-15T00:26:14;10.60;;;1.60;;
41815;SDS011;27814;53.452;-6.180;2022-11-15T00:28:44;8.02;;;1.38;;
41815;SDS011;27814;53.452;-6.180;2022-11-15T00:31:13;12.27;;;1.60;;
41815;SDS011;27814;53.452;-6.180;2022-11-15T00:33:42;10.33;;;1.70;;
41815;SDS011;27814;53.452;-6.180;2022-11-15T00:36:13;8.00;;;1.33;;
41815;SDS011;27814;53.452;-6.180;2022-11-15T00:38:41;12.75;;;1.88;;
41815;SDS011;27814;53.452;-6.180;2022-11-15T00:41:10;12.80;;;1.63;;
41815;SDS011;27814;53.452;-6.180;2022-11-15T00:43:38;10.90;;;1.60;;
41815;SDS011;27814;53.452;-6.180;2022-11-15T00:46:10;10.15;;;1.45;;
41815;SDS011;27814;53.452;-6.180;2022-11-15T00:48:38;13.80;;;2.10;;
41815;SDS011;27814;53.452;-6.180;2022-11-15T00:51:06;11.52;;;1.77;;
41815;SDS011;27814;53.452;-6.180;2022-11-15T00:53:36;11.48;;;1.70;;
41815;SDS011;27814;53.452;-6.180;2022-11-15T00:56:05;11.68;;;2.45;;
41815;SDS011;27814;53.452;-6.180;2022-11-15T00:58:33;10.77;;;1.70;;
41815;SDS011;27814;53.452;-6.180;2022-11-15T01:01:05;12.43;;;1.55;;
41815;SDS011;27814;53.452;-6.180;2022-11-15T01:03:36;10.70;;;1.83;;
41815;SDS011;27814;53.452;-6.180;2022-11-15T01:06:06;11.70;;;1.77;;
41815;SDS011;27814;53.452;-6.180;2022-11-15T01:08:36;11.95;;;1.70;;
41815;SDS011;27814;53.452;-6.180;2022-11-15T01:11:06;11.80;;;1.40;;
41815;SDS011;27814;53.452;-6.180;2022-11-15T01:13:38;8.45;;;1.75;;
41815;SDS011;27814;53.452;-6.180;2022-11-15T01:16:07;12.30;;;1.40;;
41815;SDS011;27814;53.452;-6.180;2022-11-15T01:18:38;7.07;;;1.27;;
41815;SDS011;27814;53.452;-6.180;2022-11-15T01:21:07;6.30;;;1.25;;
41815;SDS011;27814;53.452;-6.180;2022-11-15T01:23:38;7.75;;;1.10;;
41815;SDS011;27814;53.452;-6.180;2022-11-15T01:26:09;7.33;;;1.23;;
41815;SDS011;27814;53.452;-6.180;2022-11-15T01:28:39;11.65;;;1.40;;
41815;SDS011;27814;53.452;-6.180;2022-11-15T01:31:09;9.75;;;1.65;;
41815;SDS011;27814;53.452;-6.180;2022-11-15T01:33:40;11.50;;;1.65;;
41815;SDS011;27814;53.452;-6.180;2022-11-15T01:36:11;8.52;;;1.40;;
41815;SDS011;27814;53.452;-6.180;2022-11-15T01:38:42;6.82;;;1.05;;
41815;SDS011;27814;53.452;-6.180;2022-11-15T01:41:18;8.77;;;1.30;;
41815;SDS011;27814;53.452;-6.180;2022-11-15T01:43:48;9.77;;;1.45;;
41815;SDS011;27814;53.452;-6.180;2022-11-15T01:46:22;5.55;;;1.00;;
41815;SDS011;27814;53.452;-6.180;2022-11-15T01:48:55;10.20;;;1.20;;
41815;SDS011;27814;53.452;-6.180;2022-11-15T01:51:26;10.20;;;1.50;;
41815;SDS011;27814;53.452;-6.180;2022-11-15T01:54:00;10.10;;;1.67;;
41815;SDS011;27814;53.452;-6.180;2022-11-15T01:56:31;6.97;;;1.30;;
41815;SDS011;27814;53.452;-6.180;2022-11-15T01:59:05;7.00;;;1.02;;
41815;SDS011;27814;53.452;-6.180;2022-11-15T02:01:36;9.85;;;1.30;;
41815;SDS011;27814;53.452;-6.180;2022-11-15T02:04:06;7.53;;;1.15;;
41815;SDS011;27814;53.452;-6.180;2022-11-15T02:06:39;10.40;;;1.35;;
41815;SDS011;27814;53.452;-6.180;2022-11-15T02:09:10;7.95;;;1.27;;
41815;SDS011;27814;53.452;-6.180;2022-11-15T02:11:39;10.38;;;1.67;;
41815;SDS011;27814;53.452;-6.180;2022-11-15T02:14:08;10.02;;;1.40;;
41815;SDS011;27814;53.452;-6.180;2022-11-15T02:16:40;10.23;;;1.35;;
41815;SDS011;27814;53.452;-6.180;2022-11-15T02:19:21;9.00;;;1.47;;
41815;SDS011;27814;53.452;-6.180;2022-11-15T02:22:10;2.15;;;0.35;;
41815;SDS011;27814;53.452;-6.180;2022-11-15T02:24:59;1.00;;;0.10;;
41815;SDS011;27814;53.452;-6.180;2022-11-15T02:27:46;1.38;;;0.25;;
41815;SDS011;27814;53.452;-6.180;2022-11-15T02:30:39;2.20;;;0.70;;
41815;SDS011;27814;53.452;-6.180;2022-11-15T02:33:13;1.95;;;0.38;;
41815;SDS011;27814;53.452;-6.180;2022-11-15T02:35:51;0.75;;;0.20;;
41815;SDS011;27814;53.452;-6.180;2022-11-15T02:38:26;2.42;;;0.40;;
41815;SDS011;27814;53.452;-6.180;2022-11-15T02:41:02;2.03;;;0.50;;
41815;SDS011;27814;53.452;-6.180;2022-11-15T02:43:38;2.28;;;0.52;;
41815;SDS011;27814;53.452;-6.180;2022-11-15T02:46:26;2.05;;;0.60;;
41815;SDS011;27814;53.452;-6.180;2022-11-15T02:49:17;2.47;;;0.60;;
41815;SDS011;27814;53.452;-6.180;2022-11-15T02:51:46;3.25;;;0.88;;
41815;SDS011;27814;53.452;-6.180;2022-11-15T02:54:18;4.25;;;0.77;;
41815;SDS011;27814;53.452;-6.180;2022-11-15T02:56:50;4.03;;;0.85;;
41815;SDS011;27814;53.452;-6.180;2022-11-15T02:59:28;5.75;;;0.80;;
41815;SDS011;27814;53.452;-6.180;2022-11-15T03:02:20;4.55;;;0.55;;
41815;SDS011;27814;53.452;-6.180;2022-11-15T03:05:00;3.97;;;0.85;;
41815;SDS011;27814;53.452;-6.180;2022-11-15T03:07:37;3.70;;;0.60;;
41815;SDS011;27814;53.452;-6.180;2022-11-15T03:10:12;4.13;;;0.80;;
41815;SDS011;27814;53.452;-6.180;2022-11-15T03:12:48;4.50;;;0.70;;
41815;SDS011;27814;53.452;-6.180;2022-11-15T03:15:23;4.40;;;0.90;;
41815;SDS011;27814;53.452;-6.180;2022-11-15T03:17:59;5.63;;;1.08;;
41815;SDS011;27814;53.452;-6.180;2022-11-15T03:20:31;8.18;;;1.00;;
41815;SDS011;27814;53.452;-6.180;2022-11-15T03:23:03;3.97;;;0.70;;
41815;SDS011;27814;53.452;-6.180;2022-11-15T03:25:34;2.03;;;0.43;;
41815;SDS011;27814;53.452;-6.180;2022-11-15T03:28:09;3.85;;;1.13;;
41815;SDS011;27814;53.452;-6.180;2022-11-15T03:30:40;6.22;;;0.80;;
41815;SDS011;27814;53.452;-6.180;2022-11-15T03:33:12;6.60;;;1.08;;
41815;SDS011;27814;53.452;-6.180;2022-11-15T03:35:42;3.97;;;1.00;;
41815;SDS011;27814;53.452;-6.180;2022-11-15T03:38:14;4.88;;;0.80;;
41815;SDS011;27814;53.452;-6.180;2022-11-15T03:40:48;6.15;;;0.95;;
41815;SDS011;27814;53.452;-6.180;2022-11-15T03:43:24;6.15;;;1.00;;
41815;SDS011;27814;53.452;-6.180;2022-11-15T03:46:00;6.10;;;0.80;;
41815;SDS011;27814;53.452;-6.180;2022-11-15T03:48:35;4.45;;;0.88;;
41815;SDS011;27814;53.452;-6.180;2022-11-15T03:51:08;6.57;;;1.30;;
41815;SDS011;27814;53.452;-6.180;2022-11-15T03:53:37;6.47;;;0.80;;
41815;SDS011;27814;53.452;-6.180;2022-11-15T03:56:06;9.38;;;1.30;;
41815;SDS011;27814;53.452;-6.180;2022-11-15T03:58:35;6.43;;;1.00;;
41815;SDS011;27814;53.452;-6.180;2022-11-15T04:01:03;5.97;;;1.50;;
41815;SDS011;27814;53.452;-6.180;2022-11-15T04:03:32;5.15;;;1.20;;
41815;SDS011;27814;53.452;-6.180;2022-11-15T04:06:02;7.50;;;1.03;;
41815;SDS011;27814;53.452;-6.180;2022-11-15T04:08:31;5.30;;;1.10;;
41815;SDS011;27814;53.452;-6.180;2022-11-15T04:10:59;5.18;;;1.02;;
41815;SDS011;27814;53.452;-6.180;2022-11-15T04:13:27;9.27;;;1.33;;
41815;SDS011;27814;53.452;-6.180;2022-11-15T04:15:56;6.45;;;0.90;;
41815;SDS011;27814;53.452;-6.180;2022-11-15T04:18:25;11.60;;;1.70;;
41815;SDS011;27814;53.452;-6.180;2022-11-15T04:20:53;6.43;;;1.10;;
41815;SDS011;27814;53.452;-6.180;2022-11-15T04:23:40;6.50;;;0.98;;
41815;SDS011;27814;53.452;-6.180;2022-11-15T04:26:26;8.52;;;1.05;;
41815;SDS011;27814;53.452;-6.180;2022-11-15T04:28:55;6.20;;;0.95;;
41815;SDS011;27814;53.452;-6.180;2022-11-15T04:31:55;8.45;;;1.33;;
41815;SDS011;27814;53.452;-6.180;2022-11-15T04:34:23;7.53;;;1.70;;
41815;SDS011;27814;53.452;-6.180;2022-11-15T04:36:51;8.07;;;1.13;;
41815;SDS011;27814;53.452;-6.180;2022-11-15T04:39:38;5.88;;;1.10;;
41815;SDS011;27814;53.452;-6.180;2022-11-15T04:42:07;7.97;;;1.40;;
41815;SDS011;27814;53.452;-6.180;2022-11-15T04:44:37;8.40;;;1.40;;
41815;SDS011;27814;53.452;-6.180;2022-11-15T04:47:05;5.97;;;1.10;;
41815;SDS011;27814;53.452;-6.180;2022-11-15T04:49:34;8.70;;;1.52;;
41815;SDS011;27814;53.452;-6.180;2022-11-15T04:52:02;8.20;;;1.08;;
41815;SDS011;27814;53.452;-6.180;2022-11-15T04:54:31;10.33;;;1.37;;
41815;SDS011;27814;53.452;-6.180;2022-11-15T04:57:01;5.95;;;1.02;;
41815;SDS011;27814;53.452;-6.180;2022-11-15T04:59:29;7.60;;;1.55;;
41815;SDS011;27814;53.452;-6.180;2022-11-15T05:01:58;8.40;;;1.70;;
41815;SDS011;27814;53.452;-6.180;2022-11-15T05:04:26;9.80;;;1.45;;
41815;SDS011;27814;53.452;-6.180;2022-11-15T05:06:54;11.52;;;1.50;;
41815;SDS011;27814;53.452;-6.180;2022-11-15T05:09:22;7.82;;;1.40;;
41815;SDS011;27814;53.452;-6.180;2022-11-15T05:11:50;12.63;;;1.70;;
41815;SDS011;27814;53.452;-6.180;2022-11-15T05:14:20;8.55;;;1.45;;
41815;SDS011;27814;53.452;-6.180;2022-11-15T05:16:49;6.90;;;1.13;;
41815;SDS011;27814;53.452;-6.180;2022-11-15T05:19:17;9.25;;;1.88;;
41815;SDS011;27814;53.452;-6.180;2022-11-15T05:21:46;11.27;;;1.92;;
41815;SDS011;27814;53.452;-6.180;2022-11-15T05:24:15;6.38;;;1.20;;
41815;SDS011;27814;53.452;-6.180;2022-11-15T05:26:44;7.75;;;1.20;;
41815;SDS011;27814;53.452;-6.180;2022-11-15T05:29:12;6.50;;;1.70;;
41815;SDS011;27814;53.452;-6.180;2022-11-15T05:31:42;10.18;;;1.52;;
41815;SDS011;27814;53.452;-6.180;2022-11-15T05:34:10;10.18;;;1.38;;
41815;SDS011;27814;53.452;-6.180;2022-11-15T05:36:41;10.93;;;1.35;;
41815;SDS011;27814;53.452;-6.180;2022-11-15T05:39:11;10.80;;;1.40;;
41815;SDS011;27814;53.452;-6.180;2022-11-15T05:41:40;9.20;;;1.63;;
41815;SDS011;27814;53.452;-6.180;2022-11-15T05:44:11;7.78;;;1.45;;
41815;SDS011;27814;53.452;-6.180;2022-11-15T05:46:45;7.10;;;1.30;;
41815;SDS011;27814;53.452;-6.180;2022-11-15T05:49:15;6.97;;;1.42;;
41815;SDS011;27814;53.452;-6.180;2022-11-15T05:51:46;9.40;;;1.38;;
41815;SDS011;27814;53.452;-6.180;2022-11-15T05:54:17;9.75;;;1.48;;
41815;SDS011;27814;53.452;-6.180;2022-11-15T05:56:47;6.55;;;1.27;;
41815;SDS011;27814;53.452;-6.180;2022-11-15T05:59:16;9.70;;;1.33;;
41815;SDS011;27814;53.452;-6.180;2022-11-15T06:01:47;8.13;;;1.20;;
41815;SDS011;27814;53.452;-6.180;2022-11-15T06:04:16;7.78;;;1.50;;
41815;SDS011;27814;53.452;-6.180;2022-11-15T06:06:44;6.55;;;1.38;;
41815;SDS011;27814;53.452;-6.180;2022-11-15T06:09:12;9.38;;;1.23;;
41815;SDS011;27814;53.452;-6.180;2022-11-15T06:11:41;8.80;;;1.40;;
41815;SDS011;27814;53.452;-6.180;2022-11-15T06:14:09;7.05;;;1.10;;
41815;SDS011;27814;53.452;-6.180;2022-11-15T06:16:37;6.97;;;1.13;;
41815;SDS011;27814;53.452;-6.180;2022-11-15T06:19:07;9.80;;;1.17;;
41815;SDS011;27814;53.452;-6.180;2022-11-15T06:21:39;10.35;;;1.70;;
41815;SDS011;27814;53.452;-6.180;2022-11-15T06:24:07;6.50;;;1.23;;
41815;SDS011;27814;53.452;-6.180;2022-11-15T06:26:36;8.90;;;1.63;;
41815;SDS011;27814;53.452;-6.180;2022-11-15T06:29:04;8.93;;;1.67;;
41815;SDS011;27814;53.452;-6.180;2022-11-15T06:31:33;12.80;;;1.45;;
41815;SDS011;27814;53.452;-6.180;2022-11-15T06:34:02;7.20;;;1.40;;
41815;SDS011;27814;53.452;-6.180;2022-11-15T06:36:33;7.68;;;1.42;;
41815;SDS011;27814;53.452;-6.180;2022-11-15T06:39:02;8.95;;;1.35;;
41815;SDS011;27814;53.452;-6.180;2022-11-15T06:41:33;10.43;;;1.75;;
41815;SDS011;27814;53.452;-6.180;2022-11-15T06:44:01;10.40;;;1.52;;
41815;SDS011;27814;53.452;-6.180;2022-11-15T06:46:30;10.18;;;1.70;;
41815;SDS011;27814;53.452;-6.180;2022-11-15T06:49:00;11.23;;;1.73;;
41815;SDS011;27814;53.452;-6.180;2022-11-15T06:51:36;11.13;;;2.28;;
41815;SDS011;27814;53.452;-6.180;2022-11-15T06:54:05;10.55;;;1.50;;
41815;SDS011;27814;53.452;-6.180;2022-11-15T06:56:34;13.57;;;1.53;;
41815;SDS011;27814;53.452;-6.180;2022-11-15T06:59:02;9.45;;;2.15;;
41815;SDS011;27814;53.452;-6.180;2022-11-15T07:01:31;12.48;;;1.88;;
41815;SDS011;27814;53.452;-6.180;2022-11-15T07:03:59;8.13;;;1.90;;
41815;SDS011;27814;53.452;-6.180;2022-11-15T07:06:28;8.00;;;1.70;;
41815;SDS011;27814;53.452;-6.180;2022-11-15T07:08:57;6.65;;;1.48;;
41815;SDS011;27814;53.452;-6.180;2022-11-15T07:11:26;8.73;;;1.48;;
41815;SDS011;27814;53.452;-6.180;2022-11-15T07:13:54;9.93;;;1.63;;
41815;SDS011;27814;53.452;-6.180;2022-11-15T07:16:23;12.23;;;2.10;;
41815;SDS011;27814;53.452;-6.180;2022-11-15T07:18:51;8.98;;;1.42;;
41815;SDS011;27814;53.452;-6.180;2022-11-15T07:21:20;11.45;;;1.63;;
41815;SDS011;27814;53.452;-6.180;2022-11-15T07:23:54;8.30;;;1.50;;
41815;SDS011;27814;53.452;-6.180;2022-11-15T07:26:24;7.95;;;1.83;;
41815;SDS011;27814;53.452;-6.180;2022-11-15T07:28:53;7.57;;;1.85;;
41815;SDS011;27814;53.452;-6.180;2022-11-15T07:31:22;10.30;;;2.20;;
41815;SDS011;27814;53.452;-6.180;2022-11-15T07:33:51;9.75;;;1.90;;
41815;SDS011;27814;53.452;-6.180;2022-11-15T07:36:20;9.30;;;1.47;;
41815;SDS011;27814;53.452;-6.180;2022-11-15T07:38:48;10.02;;;2.08;;
41815;SDS011;27814;53.452;-6.180;2022-11-15T07:41:17;9.32;;;1.98;;
41815;SDS011;27814;53.452;-6.180;2022-11-15T07:43:47;8.55;;;1.48;;
41815;SDS011;27814;53.452;-6.180;2022-11-15T07:46:19;9.05;;;1.45;;
41815;SDS011;27814;53.452;-6.180;2022-11-15T07:48:47;7.55;;;1.50;;
41815;SDS011;27814;53.452;-6.180;2022-11-15T07:51:16;10.32;;;1.90;;
41815;SDS011;27814;53.452;-6.180;2022-11-15T07:53:47;8.35;;;1.85;;
41815;SDS011;27814;53.452;-6.180;2022-11-15T07:56:15;11.45;;;1.83;;
41815;SDS011;27814;53.452;-6.180;2022-11-15T07:58:45;7.53;;;1.58;;
41815;SDS011;27814;53.452;-6.180;2022-11-15T08:01:16;8.90;;;1.63;;
41815;SDS011;27814;53.452;-6.180;2022-11-15T08:03:45;8.77;;;1.50;;
41815;SDS011;27814;53.452;-6.180;2022-11-15T08:06:13;9.32;;;1.60;;
41815;SDS011;27814;53.452;-6.180;2022-11-15T08:08:42;12.57;;;2.40;;
41815;SDS011;27814;53.452;-6.180;2022-11-15T08:11:10;12.98;;;1.92;;
41815;SDS011;27814;53.452;-6.180;2022-11-15T08:13:39;12.65;;;2.33;;
41815;SDS011;27814;53.452;-6.180;2022-11-15T08:16:09;8.93;;;2.20;;
41815;SDS011;27814;53.452;-6.180;2022-11-15T08:18:38;12.45;;;2.10;;
41815;SDS011;27814;53.452;-6.180;2022-11-15T08:21:08;12.20;;;1.83;;
41815;SDS011;27814;53.452;-6.180;2022-11-15T08:23:49;10.00;;;1.98;;
41815;SDS011;27814;53.452;-6.180;2022-11-15T08:26:18;10.77;;;1.63;;
41815;SDS011;27814;53.452;-6.180;2022-11-15T08:28:46;9.63;;;1.60;;
41815;SDS011;27814;53.452;-6.180;2022-11-15T08:31:17;8.43;;;1.60;;
41815;SDS011;27814;53.452;-6.180;2022-11-15T08:33:46;8.63;;;1.40;;
41815;SDS011;27814;53.452;-6.180;2022-11-15T08:36:15;11.82;;;2.03;;
41815;SDS011;27814;53.452;-6.180;2022-11-15T08:38:45;9.35;;;1.65;;
41815;SDS011;27814;53.452;-6.180;2022-11-15T08:41:14;13.00;;;1.95;;
41815;SDS011;27814;53.452;-6.180;2022-11-15T08:43:50;7.03;;;1.55;;
41815;SDS011;27814;53.452;-6.180;2022-11-15T08:46:19;7.95;;;1.65;;
41815;SDS011;27814;53.452;-6.180;2022-11-15T08:48:48;11.30;;;1.63;;
41815;SDS011;27814;53.452;-6.180;2022-11-15T08:51:17;12.93;;;2.33;;
41815;SDS011;27814;53.452;-6.180;2022-11-15T08:53:46;10.93;;;1.93;;
41815;SDS011;27814;53.452;-6.180;2022-11-15T08:56:14;10.15;;;1.67;;
41815;SDS011;27814;53.452;-6.180;2022-11-15T08:58:43;11.35;;;1.92;;
41815;SDS011;27814;53.452;-6.180;2022-11-15T09:01:16;11.52;;;1.65;;
41815;SDS011;27814;53.452;-6.180;2022-11-15T09:03:48;11.97;;;2.40;;
41815;SDS011;27814;53.452;-6.180;2022-11-15T09:06:16;9.33;;;1.70;;
41815;SDS011;27814;53.452;-6.180;2022-11-15T09:08:44;10.15;;;1.95;;
41815;SDS011;27814;53.452;-6.180;2022-11-15T09:11:14;11.68;;;1.88;;
41815;SDS011;27814;53.452;-6.180;2022-11-15T09:13:46;11.82;;;1.40;;
41815;SDS011;27814;53.452;-6.180;2022-11-15T09:16:15;11.35;;;1.88;;
41815;SDS011;27814;53.452;-6.180;2022-11-15T09:18:43;8.18;;;1.67;;
41815;SDS011;27814;53.452;-6.180;2022-11-15T09:21:13;11.57;;;1.90;;
41815;SDS011;27814;53.452;-6.180;2022-11-15T09:23:41;9.10;;;1.80;;
41815;SDS011;27814;53.452;-6.180;2022-11-15T09:26:10;8.95;;;1.77;;
41815;SDS011;27814;53.452;-6.180;2022-11-15T09:28:38;11.00;;;1.80;;
41815;SDS011;27814;53.452;-6.180;2022-11-15T09:31:08;11.75;;;2.38;;
41815;SDS011;27814;53.452;-6.180;2022-11-15T09:33:37;12.15;;;1.80;;
41815;SDS011;27814;53.452;-6.180;2022-11-15T09:36:06;11.95;;;2.10;;
41815;SDS011;27814;53.452;-6.180;2022-11-15T09:38:38;11.52;;;1.70;;
41815;SDS011;27814;53.452;-6.180;2022-11-15T09:44:18;11.32;;;2.42;;
41815;SDS011;27814;53.452;-6.180;2022-11-15T09:47:06;10.98;;;1.80;;
41815;SDS011;27814;53.452;-6.180;2022-11-15T09:49:53;10.80;;;2.38;;
41815;SDS011;27814;53.452;-6.180;2022-11-15T09:52:23;10.32;;;1.77;;
41815;SDS011;27814;53.452;-6.180;2022-11-15T09:54:54;9.85;;;2.28;;
41815;SDS011;27814;53.452;-6.180;2022-11-15T09:57:24;8.32;;;2.10;;
41815;SDS011;27814;53.452;-6.180;2022-11-15T10:00:02;9.07;;;1.60;;
41815;SDS011;27814;53.452;-6.180;2022-11-15T10:03:08;8.45;;;1.77;;
41815;SDS011;27814;53.452;-6.180;2022-11-15T10:05:40;10.07;;;1.93;;
41815;SDS011;27814;53.452;-6.180;2022-11-15T10:08:17;11.32;;;2.17;;
41815;SDS011;27814;53.452;-6.180;2022-11-15T10:11:02;11.02;;;1.70;;
41815;SDS011;27814;53.452;-6.180;2022-11-15T10:13:53;7.57;;;1.83;;
41815;SDS011;27814;53.452;-6.180;2022-11-15T10:19:23;11.15;;;1.95;;
41815;SDS011;27814;53.452;-6.180;2022-11-15T10:22:00;6.32;;;1.58;;
41815;SDS011;27814;53.452;-6.180;2022-11-15T10:24:43;8.00;;;1.48;;
41815;SDS011;27814;53.452;-6.180;2022-11-15T10:27:16;11.53;;;1.80;;
41815;SDS011;27814;53.452;-6.180;2022-11-15T10:29:46;10.43;;;1.67;;
41815;SDS011;27814;53.452;-6.180;2022-11-15T10:32:18;9.98;;;1.50;;
41815;SDS011;27814;53.452;-6.180;2022-11-15T10:34:48;9.18;;;2.03;;
41815;SDS011;27814;53.452;-6.180;2022-11-15T10:37:27;8.98;;;1.70;;
41815;SDS011;27814;53.452;-6.180;2022-11-15T10:40:06;10.95;;;1.75;;
41815;SDS011;27814;53.452;-6.180;2022-11-15T10:42:45;11.63;;;1.85;;
41815;SDS011;27814;53.452;-6.180;2022-11-15T10:50:51;10.55;;;1.88;;
41815;SDS011;27814;53.452;-6.180;2022-11-15T10:53:22;10.80;;;1.60;;
41815;SDS011;27814;53.452;-6.180;2022-11-15T10:55:58;9.63;;;1.58;;
41815;SDS011;27814;53.452;-6.180;2022-11-15T10:58:34;11.27;;;2.08;;
41815;SDS011;27814;53.452;-6.180;2022-11-15T11:01:09;16.17;;;1.83;;
41815;SDS011;27814;53.452;-6.180;2022-11-15T11:03:43;8.60;;;1.60;;
41815;SDS011;27814;53.452;-6.180;2022-11-15T11:06:13;11.07;;;1.90;;
41815;SDS011;27814;53.452;-6.180;2022-11-15T11:08:53;10.95;;;1.60;;
41815;SDS011;27814;53.452;-6.180;2022-11-15T11:11:23;8.70;;;1.83;;
41815;SDS011;27814;53.452;-6.180;2022-11-15T11:13:53;7.28;;;1.30;;
41815;SDS011;27814;53.452;-6.180;2022-11-15T11:16:27;7.85;;;1.73;;
41815;SDS011;27814;53.452;-6.180;2022-11-15T11:19:14;7.38;;;1.45;;
41815;SDS011;27814;53.452;-6.180;2022-11-15T11:22:00;11.23;;;1.40;;
41815;SDS011;27814;53.452;-6.180;2022-11-15T11:24:33;8.50;;;1.63;;
41815;SDS011;27814;53.452;-6.180;2022-11-15T11:27:08;10.23;;;1.50;;
41815;SDS011;27814;53.452;-6.180;2022-11-15T11:29:53;7.75;;;1.25;;
41815;SDS011;27814;53.452;-6.180;2022-11-15T11:35:32;8.30;;;1.58;;
41815;SDS011;27814;53.452;-6.180;2022-11-15T11:38:15;7.47;;;1.27;;
41815;SDS011;27814;53.452;-6.180;2022-11-15T11:40:56;8.20;;;1.48;;
41815;SDS011;27814;53.452;-6.180;2022-11-15T11:43:34;8.60;;;1.40;;
41815;SDS011;27814;53.452;-6.180;2022-11-15T11:46:13;9.77;;;1.60;;
41815;SDS011;27814;53.452;-6.180;2022-11-15T11:48:58;6.93;;;1.23;;
41815;SDS011;27814;53.452;-6.180;2022-11-15T11:51:33;6.30;;;1.20;;
41815;SDS011;27814;53.452;-6.180;2022-11-15T11:54:09;10.00;;;1.50;;
41815;SDS011;27814;53.452;-6.180;2022-11-15T11:56:43;8.07;;;1.67;;
41815;SDS011;27814;53.452;-6.180;2022-11-15T11:59:23;8.60;;;1.60;;
41815;SDS011;27814;53.452;-6.180;2022-11-15T12:02:02;7.90;;;1.40;;
41815;SDS011;27814;53.452;-6.180;2022-11-15T12:04:43;8.55;;;1.23;;
41815;SDS011;27814;53.452;-6.180;2022-11-15T12:07:17;8.18;;;1.50;;
41815;SDS011;27814;53.452;-6.180;2022-11-15T12:09:52;8.43;;;1.20;;
41815;SDS011;27814;53.452;-6.180;2022-11-15T12:12:27;8.27;;;1.80;;
41815;SDS011;27814;53.452;-6.180;2022-11-15T12:15:02;8.48;;;1.55;;
41815;SDS011;27814;53.452;-6.180;2022-11-15T12:17:41;11.40;;;1.63;;
41815;SDS011;27814;53.452;-6.180;2022-11-15T12:20:15;9.82;;;1.30;;
41815;SDS011;27814;53.452;-6.180;2022-11-15T12:22:47;12.17;;;1.53;;
41815;SDS011;27814;53.452;-6.180;2022-11-15T12:25:21;9.27;;;1.75;;
41815;SDS011;27814;53.452;-6.180;2022-11-15T12:27:56;8.53;;;1.83;;
41815;SDS011;27814;53.452;-6.180;2022-11-15T12:30:36;8.27;;;1.52;;
41815;SDS011;27814;53.452;-6.180;2022-11-15T12:36:08;7.15;;;1.00;;
41815;SDS011;27814;53.452;-6.180;2022-11-15T12:38:52;10.32;;;1.02;;
41815;SDS011;27814;53.452;-6.180;2022-11-15T12:41:23;9.63;;;1.20;;
41815;SDS011;27814;53.452;-6.180;2022-11-15T12:43:53;10.45;;;2.03;;
41815;SDS011;27814;53.452;-6.180;2022-11-15T12:46:23;9.57;;;1.60;;
41815;SDS011;27814;53.452;-6.180;2022-11-15T12:49:10;7.60;;;1.37;;
41815;SDS011;27814;53.452;-6.180;2022-11-15T12:52:04;8.95;;;1.55;;
41815;SDS011;27814;53.452;-6.180;2022-11-15T12:54:50;9.02;;;1.27;;
41815;SDS011;27814;53.452;-6.180;2022-11-15T12:57:40;10.40;;;1.25;;
41815;SDS011;27814;53.452;-6.180;2022-11-15T13:03:23;6.60;;;1.30;;
41815;SDS011;27814;53.452;-6.180;2022-11-15T13:05:59;9.25;;;1.55;;
41815;SDS011;27814;53.452;-6.180;2022-11-15T13:08:52;7.10;;;1.08;;
41815;SDS011;27814;53.452;-6.180;2022-11-15T13:22:49;6.95;;;1.00;;
41815;SDS011;27814;53.452;-6.180;2022-11-15T13:25:43;5.47;;;1.10;;
41815;SDS011;27814;53.452;-6.180;2022-11-15T13:28:27;7.05;;;1.10;;
41815;SDS011;27814;53.452;-6.180;2022-11-15T13:31:01;7.00;;;1.02;;
41815;SDS011;27814;53.452;-6.180;2022-11-15T13:33:41;8.43;;;1.60;;
41815;SDS011;27814;53.452;-6.180;2022-11-15T13:36:12;6.70;;;1.33;;
41815;SDS011;27814;53.452;-6.180;2022-11-15T13:38:44;7.30;;;1.35;;
41815;SDS011;27814;53.452;-6.180;2022-11-15T13:41:22;8.35;;;1.00;;
41815;SDS011;27814;53.452;-6.180;2022-11-15T13:43:53;9.30;;;1.27;;
41815;SDS011;27814;53.452;-6.180;2022-11-15T13:46:22;6.13;;;1.02;;
41815;SDS011;27814;53.452;-6.180;2022-11-15T13:48:53;5.57;;;1.20;;
41815;SDS011;27814;53.452;-6.180;2022-11-15T13:51:34;12.68;;;1.30;;
41815;SDS011;27814;53.452;-6.180;2022-11-15T13:54:09;10.25;;;1.20;;
41815;SDS011;27814;53.452;-6.180;2022-11-15T13:56:46;5.40;;;1.30;;
41815;SDS011;27814;53.452;-6.180;2022-11-15T13:59:18;3.30;;;0.85;;
41815;SDS011;27814;53.452;-6.180;2022-11-15T14:01:51;4.22;;;1.27;;
41815;SDS011;27814;53.452;-6.180;2022-11-15T14:04:22;13.55;;;1.50;;
41815;SDS011;27814;53.452;-6.180;2022-11-15T14:06:53;7.63;;;1.20;;
41815;SDS011;27814;53.452;-6.180;2022-11-15T14:09:34;6.03;;;1.02;;
41815;SDS011;27814;53.452;-6.180;2022-11-15T14:12:24;6.95;;;1.23;;
41815;SDS011;27814;53.452;-6.180;2022-11-15T14:14:55;6.77;;;1.20;;
41815;SDS011;27814;53.452;-6.180;2022-11-15T14:17:35;5.07;;;1.17;;
41815;SDS011;27814;53.452;-6.180;2022-11-15T14:20:19;7.97;;;1.33;;
41815;SDS011;27814;53.452;-6.180;2022-11-15T14:22:54;5.70;;;1.17;;
41815;SDS011;27814;53.452;-6.180;2022-11-15T14:25:25;9.10;;;1.48;;
41815;SDS011;27814;53.452;-6.180;2022-11-15T14:28:14;7.85;;;1.00;;
41815;SDS011;27814;53.452;-6.180;2022-11-15T14:30:56;6.37;;;1.27;;
41815;SDS011;27814;53.452;-6.180;2022-11-15T14:33:27;6.07;;;1.30;;
41815;SDS011;27814;53.452;-6.180;2022-11-15T14:36:01;5.73;;;1.40;;
41815;SDS011;27814;53.452;-6.180;2022-11-15T14:38:31;4.23;;;1.10;;
41815;SDS011;27814;53.452;-6.180;2022-11-15T14:41:03;6.68;;;1.20;;
41815;SDS011;27814;53.452;-6.180;2022-11-15T14:43:32;4.88;;;0.90;;
41815;SDS011;27814;53.452;-6.180;2022-11-15T14:46:00;6.25;;;1.00;;
41815;SDS011;27814;53.452;-6.180;2022-11-15T14:48:31;3.08;;;1.05;;
41815;SDS011;27814;53.452;-6.180;2022-11-15T14:51:00;6.13;;;1.52;;
41815;SDS011;27814;53.452;-6.180;2022-11-15T14:53:28;7.25;;;1.15;;
41815;SDS011;27814;53.452;-6.180;2022-11-15T14:55:57;3.65;;;0.80;;
41815;SDS011;27814;53.452;-6.180;2022-11-15T14:58:27;8.48;;;1.40;;
41815;SDS011;27814;53.452;-6.180;2022-11-15T15:00:55;6.20;;;0.95;;
41815;SDS011;27814;53.452;-6.180;2022-11-15T15:03:24;5.97;;;1.10;;
41815;SDS011;27814;53.452;-6.180;2022-11-15T15:05:52;3.65;;;1.25;;
41815;SDS011;27814;53.452;-6.180;2022-11-15T15:08:22;6.35;;;1.10;;
41815;SDS011;27814;53.452;-6.180;2022-11-15T15:10:51;6.85;;;1.35;;
41815;SDS011;27814;53.452;-6.180;2022-11-15T15:13:20;5.45;;;1.20;;
41815;SDS011;27814;53.452;-6.180;2022-11-15T15:15:53;6.33;;;1.00;;
41815;SDS011;27814;53.452;-6.180;2022-11-15T15:18:21;7.28;;;1.10;;
41815;SDS011;27814;53.452;-6.180;2022-11-15T15:20:53;7.63;;;1.33;;
41815;SDS011;27814;53.452;-6.180;2022-11-15T15:23:24;8.65;;;1.13;;
41815;SDS011;27814;53.452;-6.180;2022-11-15T15:25:55;5.72;;;1.00;;
41815;SDS011;27814;53.452;-6.180;2022-11-15T15:28:24;9.13;;;1.35;;
41815;SDS011;27814;53.452;-6.180;2022-11-15T15:31:02;6.25;;;1.50;;
41815;SDS011;27814;53.452;-6.180;2022-11-15T15:33:30;8.98;;;1.58;;
41815;SDS011;27814;53.452;-6.180;2022-11-15T15:35:59;7.32;;;1.48;;